DRRT

Tahoua Airport

Tahoua, Niger
METAR DRRT 151800Z 28004KT 9999 FEW040 FEW050CB 34/19 Q1012
Observed Flight Rules
Aug-15 @ 18:00 UTC (4 hours ago) Visual Flight Rules
Wind Visibility Clouds
280° at 4 knots 10,000+ meters
  • Few at 4,000' AGL
  • Few at 5,000' AGL
Temperatures Readings
Current 34°C / 93°F
Dewpoint 19°C / 66°F
Humidity 41%
Altimeter 29.88" Hg
Pressure 1012 hPa
Elevation 391
METAR DRRT 151800Z 28004KT 9999 FEW040 FEW050CB 34/19 Q1012
Observed Flight Rules
Aug-15 @ 18:00 UTC
(4 hours ago)
VFR
Wind Visibility
280° at 4 knots 10,000+ meters
Clouds
  • Few at 4,000' AGL
  • Few at 5,000' AGL
Temperature Dewpoint
34°C / 93°F 19°C / 66°F
Humidity Altimeter Pressure
41% 29.88" Hg 1012 hPa